Nelvik, North Dakota
Current Conditions -  °F | °C
As of 11:55 AM on Saturday 22 Nov 2014 (Local Time) from K7L2 Reporting Station
Clear Clear  
Wind Chill: 29°   Ceiling: Unl
Heat Index: 37°   Visibility: 10mi
Dew Point: 28°   Wind: 13mph
Humidity: 70%   Direction: 150°SSE
Pressure: 29.44"   Gusts: 16mph
Location:  46.0926°N, 99.1856°W
Report Text: K7L2 221755Z AUTO 15011G14KT 10SM CLR 03/M02 A2944 RMK AO2
Loading
Personal Weather Stations






























Interactive Weather Map New forecast layout! Learn more

10-Day Weather Forecast

Advertisements
Track Severe Weather on mobile